sensor_id;sensor_type;location;lat;lon;timestamp;pressure;altitude;pressure_sealevel;temperature;humidity
19674;BME280;9986;50.610;7.230;2024-03-07T00:00:15;144281.78;;;5.99;100.00
19674;BME280;9986;50.610;7.230;2024-03-07T00:37:19;144137.84;;;5.42;100.00
19674;BME280;9986;50.610;7.230;2024-03-07T01:09:07;143995.25;;;4.85;100.00
19674;BME280;9986;50.610;7.230;2024-03-07T01:19:41;143972.75;;;4.76;100.00
19674;BME280;9986;50.610;7.230;2024-03-07T01:32:51;143913.98;;;4.53;100.00
19674;BME280;9986;50.610;7.230;2024-03-07T01:40:44;141936.41;;;4.24;100.00
19674;BME280;9986;50.610;7.230;2024-03-07T01:48:37;132020.31;;;4.17;100.00
19674;BME280;9986;50.610;7.230;2024-03-07T01:59:12;94180.12;;;4.18;100.00
19674;BME280;9986;50.610;7.230;2024-03-07T02:07:06;84181.30;;;4.04;100.00
19674;BME280;9986;50.610;7.230;2024-03-07T02:12:21;125285.23;;;4.13;100.00
19674;BME280;9986;50.610;7.230;2024-03-07T02:17:36;98960.25;;;3.87;100.00
19674;BME280;9986;50.610;7.230;2024-03-07T02:22:50;77013.64;;;3.77;100.00
19674;BME280;9986;50.610;7.230;2024-03-07T02:41:22;85948.98;;;3.65;100.00
19674;BME280;9986;50.610;7.230;2024-03-07T02:51:57;143724.09;;;3.77;100.00
19674;BME280;9986;50.610;7.230;2024-03-07T02:57:09;128553.16;;;3.71;100.00
19674;BME280;9986;50.610;7.230;2024-03-07T03:05:01;143731.59;;;3.80;100.00
19674;BME280;9986;50.610;7.230;2024-03-07T03:10:10;143735.33;;;3.82;100.00
19674;BME280;9986;50.610;7.230;2024-03-07T03:18:08;143739.09;;;3.83;100.00
19674;BME280;9986;50.610;7.230;2024-03-07T03:23:22;138606.19;;;3.53;100.00
19674;BME280;9986;50.610;7.230;2024-03-07T03:28:35;120482.06;;;3.65;100.00
19674;BME280;9986;50.610;7.230;2024-03-07T03:33:48;125326.61;;;3.56;100.00
19674;BME280;9986;50.610;7.230;2024-03-07T03:39:02;141546.44;;;3.62;100.00
19674;BME280;9986;50.610;7.230;2024-03-07T03:52:18;135560.70;;;3.47;100.00
19674;BME280;9986;50.610;7.230;2024-03-07T03:57:31;106841.47;;;3.19;100.00
19674;BME280;9986;50.610;7.230;2024-03-07T04:02:45;59918.68;;;3.03;100.00
19674;BME280;9986;50.610;7.230;2024-03-07T04:10:37;28794.45;;;3.05;100.00
19674;BME280;9986;50.610;7.230;2024-03-07T04:15:46;34510.83;;;3.11;100.00
19674;BME280;9986;50.610;7.230;2024-03-07T04:26:18;82229.22;;;3.17;100.00
19674;BME280;9986;50.610;7.230;2024-03-07T04:34:16;50878.98;;;3.03;100.00
19674;BME280;9986;50.610;7.230;2024-03-07T04:42:13;43317.65;;;2.78;100.00
19674;BME280;9986;50.610;7.230;2024-03-07T04:47:22;28784.73;;;2.87;100.00
19674;BME280;9986;50.610;7.230;2024-03-07T04:52:35;41364.51;;;2.92;100.00
19674;BME280;9986;50.610;7.230;2024-03-07T04:57:49;36115.37;;;2.68;100.00
19674;BME280;9986;50.610;7.230;2024-03-07T05:05:36;46269.81;;;2.83;100.00
19674;BME280;9986;50.610;7.230;2024-03-07T05:13:29;57684.47;;;2.90;100.00
19674;BME280;9986;50.610;7.230;2024-03-07T05:18:43;57943.25;;;2.93;100.00
19674;BME280;9986;50.610;7.230;2024-03-07T05:23:53;41854.32;;;2.91;100.00
19674;BME280;9986;50.610;7.230;2024-03-07T05:34:19;26185.66;;;3.03;100.00
19674;BME280;9986;50.610;7.230;2024-03-07T05:44:51;44484.98;;;3.04;100.00
19674;BME280;9986;50.610;7.230;2024-03-07T05:52:52;58767.91;;;3.04;100.00
19674;BME280;9986;50.610;7.230;2024-03-07T06:03:24;53834.71;;;3.03;100.00
19674;BME280;9986;50.610;7.230;2024-03-07T06:11:14;40069.35;;;3.11;100.00
19674;BME280;9986;50.610;7.230;2024-03-07T06:42:58;41403.51;;;3.43;100.00
19674;BME280;9986;50.610;7.230;2024-03-07T06:56:10;43217.95;;;3.59;100.00
19674;BME280;9986;50.610;7.230;2024-03-07T07:12:07;26876.14;;;3.77;100.00
19674;BME280;9986;50.610;7.230;2024-03-07T07:49:03;27691.53;;;3.76;100.00
19674;BME280;9986;50.610;7.230;2024-03-07T08:02:12;14821.47;;;3.70;100.00
19674;BME280;9986;50.610;7.230;2024-03-07T08:04:43;11896.62;;;3.69;100.00
19674;BME280;9986;50.610;7.230;2024-03-07T08:12:40;22313.30;;;3.83;100.00
19674;BME280;9986;50.610;7.230;2024-03-07T08:17:58;30147.40;;;3.88;100.00
19674;BME280;9986;50.610;7.230;2024-03-07T08:23:13;49490.69;;;4.01;100.00
19674;BME280;9986;50.610;7.230;2024-03-07T08:28:27;120275.59;;;4.26;100.00
19674;BME280;9986;50.610;7.230;2024-03-07T08:36:22;143932.75;;;4.60;100.00
19674;BME280;9986;50.610;7.230;2024-03-07T08:41:32;144039.00;;;5.03;100.00
19674;BME280;9986;50.610;7.230;2024-03-07T08:46:47;144115.33;;;5.33;100.00
19674;BME280;9986;50.610;7.230;2024-03-07T08:54:39;144199.16;;;5.66;100.00
19674;BME280;9986;50.610;7.230;2024-03-07T09:13:12;144269.25;;;5.94;100.00
19674;BME280;9986;50.610;7.230;2024-03-07T09:21:07;144285.53;;;6.01;100.00
19674;BME280;9986;50.610;7.230;2024-03-07T09:39:32;144330.61;;;6.19;100.00
19674;BME280;9986;50.610;7.230;2024-03-07T10:06:02;144493.42;;;6.83;100.00
19674;BME280;9986;50.610;7.230;2024-03-07T10:11:18;144538.55;;;7.01;100.00
19674;BME280;9986;50.610;7.230;2024-03-07T10:32:31;144732.81;;;7.78;100.00
19674;BME280;9986;50.610;7.230;2024-03-07T10:37:40;144766.69;;;7.92;100.00
19674;BME280;9986;50.610;7.230;2024-03-07T10:42:51;144761.67;;;7.90;100.00
19674;BME280;9986;50.610;7.230;2024-03-07T10:53:44;144824.38;;;8.15;100.00
19674;BME280;9986;50.610;7.230;2024-03-07T11:01:38;144877.14;;;8.36;100.00
19674;BME280;9986;50.610;7.230;2024-03-07T11:14:46;144937.38;;;8.59;100.00
19674;BME280;9986;50.610;7.230;2024-03-07T11:28:17;145000.13;;;8.84;100.00
19674;BME280;9986;50.610;7.230;2024-03-07T11:36:10;145012.64;;;8.89;100.00
19674;BME280;9986;50.610;7.230;2024-03-07T11:46:45;145032.77;;;8.97;100.00
19674;BME280;9986;50.610;7.230;2024-03-07T12:02:38;145139.47;;;9.39;100.00
19674;BME280;9986;50.610;7.230;2024-03-07T12:07:47;145213.58;;;9.69;100.00
19674;BME280;9986;50.610;7.230;2024-03-07T12:13:01;145304.14;;;10.05;100.00
19674;BME280;9986;50.610;7.230;2024-03-07T12:20:58;145353.16;;;10.24;100.00
19674;BME280;9986;50.610;7.230;2024-03-07T12:28:51;145477.59;;;10.73;100.00
19674;BME280;9986;50.610;7.230;2024-03-07T12:39:25;145472.56;;;10.71;100.00
19674;BME280;9986;50.610;7.230;2024-03-07T13:03:27;145563.16;;;11.07;100.00
19674;BME280;9986;50.610;7.230;2024-03-07T13:11:19;145544.28;;;11.00;100.00
19674;BME280;9986;50.610;7.230;2024-03-07T13:21:52;145560.63;;;11.06;100.00
19674;BME280;9986;50.610;7.230;2024-03-07T13:27:08;145568.19;;;11.09;100.00
19674;BME280;9986;50.610;7.230;2024-03-07T13:35:02;145590.81;;;11.18;100.00
19674;BME280;9986;50.610;7.230;2024-03-07T13:40:16;145588.30;;;11.17;100.00
19674;BME280;9986;50.610;7.230;2024-03-07T13:45:36;145497.73;;;10.81;100.00
19674;BME280;9986;50.610;7.230;2024-03-07T13:50:51;145564.37;;;11.08;98.23
19674;BME280;9986;50.610;7.230;2024-03-07T13:56:31;145545.50;;;11.00;98.49
19674;BME280;9986;50.610;7.230;2024-03-07T14:13:57;145496.45;;;10.81;94.50
19674;BME280;9986;50.610;7.230;2024-03-07T14:53:23;145409.69;;;10.46;100.00
19674;BME280;9986;50.610;7.230;2024-03-07T14:58:36;145299.09;;;10.03;100.00
19674;BME280;9986;50.610;7.230;2024-03-07T15:14:36;145211.06;;;9.68;100.00
19674;BME280;9986;50.610;7.230;2024-03-07T15:19:52;145198.53;;;9.63;100.00
19674;BME280;9986;50.610;7.230;2024-03-07T15:25:05;145199.77;;;9.63;100.00
19674;BME280;9986;50.610;7.230;2024-03-07T15:32:59;145226.16;;;9.74;100.00
19674;BME280;9986;50.610;7.230;2024-03-07T15:46:27;145179.69;;;9.55;100.00
19674;BME280;9986;50.610;7.230;2024-03-07T15:51:41;145179.69;;;9.55;100.00
19674;BME280;9986;50.610;7.230;2024-03-07T15:56:56;145173.42;;;9.53;100.00
19674;BME280;9986;50.610;7.230;2024-03-07T16:02:10;145126.91;;;9.34;100.00
19674;BME280;9986;50.610;7.230;2024-03-07T16:07:24;145090.50;;;9.20;100.00
19674;BME280;9986;50.610;7.230;2024-03-07T16:12:37;145114.38;;;9.29;100.00
19674;BME280;9986;50.610;7.230;2024-03-07T16:20:30;145076.69;;;9.15;100.00
19674;BME280;9986;50.610;7.230;2024-03-07T16:36:28;145121.92;;;9.32;100.00
19674;BME280;9986;50.610;7.230;2024-03-07T16:41:41;145104.31;;;9.26;100.00
19674;BME280;9986;50.610;7.230;2024-03-07T16:46:50;145091.78;;;9.21;100.00
19674;BME280;9986;50.610;7.230;2024-03-07T16:57:24;145061.61;;;9.09;100.00
19674;BME280;9986;50.610;7.230;2024-03-07T17:02:37;145057.86;;;9.07;100.00
19674;BME280;9986;50.610;7.230;2024-03-07T17:13:13;144975.03;;;8.74;100.00
19674;BME280;9986;50.610;7.230;2024-03-07T17:26:28;144970.00;;;8.72;100.00
19674;BME280;9986;50.610;7.230;2024-03-07T17:34:27;144909.77;;;8.48;100.00
19674;BME280;9986;50.610;7.230;2024-03-07T17:42:15;144893.45;;;8.42;100.00
19674;BME280;9986;50.610;7.230;2024-03-07T17:50:12;144857.03;;;8.28;100.00
19674;BME280;9986;50.610;7.230;2024-03-07T18:03:22;144825.66;;;8.15;100.00
19674;BME280;9986;50.610;7.230;2024-03-07T18:08:36;144814.33;;;8.11;100.00
19674;BME280;9986;50.610;7.230;2024-03-07T18:26:57;144820.63;;;8.13;100.00
19674;BME280;9986;50.610;7.230;2024-03-07T18:34:53;144814.33;;;8.11;100.00
19674;BME280;9986;50.610;7.230;2024-03-07T18:48:12;144704.00;;;7.67;100.00
19674;BME280;9986;50.610;7.230;2024-03-07T18:56:01;144762.89;;;7.90;100.00
19674;BME280;9986;50.610;7.230;2024-03-07T19:03:54;144727.83;;;7.76;100.00
19674;BME280;9986;50.610;7.230;2024-03-07T19:14:25;144736.59;;;7.80;100.00
19674;BME280;9986;50.610;7.230;2024-03-07T19:19:38;144745.36;;;7.83;100.00
19674;BME280;9986;50.610;7.230;2024-03-07T19:32:47;144729.06;;;7.77;100.00
19674;BME280;9986;50.610;7.230;2024-03-07T19:43:18;144661.34;;;7.50;100.00
19674;BME280;9986;50.610;7.230;2024-03-07T19:48:29;144636.30;;;7.40;100.00
19674;BME280;9986;50.610;7.230;2024-03-07T19:53:42;144655.09;;;7.47;100.00
19674;BME280;9986;50.610;7.230;2024-03-07T20:04:24;144611.23;;;7.30;100.00
19674;BME280;9986;50.610;7.230;2024-03-07T20:17:35;144592.44;;;7.23;100.00
19674;BME280;9986;50.610;7.230;2024-03-07T20:49:29;144474.63;;;6.76;100.00
19674;BME280;9986;50.610;7.230;2024-03-07T21:07:59;144194.16;;;5.64;100.00
19674;BME280;9986;50.610;7.230;2024-03-07T21:13:13;144185.41;;;5.61;100.00
19674;BME280;9986;50.610;7.230;2024-03-07T21:21:02;144127.81;;;5.38;100.00
19674;BME280;9986;50.610;7.230;2024-03-07T21:28:53;144099.08;;;5.27;100.00
19674;BME280;9986;50.610;7.230;2024-03-07T21:34:06;144037.78;;;5.02;100.00
19674;BME280;9986;50.610;7.230;2024-03-07T21:39:19;144072.80;;;5.16;100.00
19674;BME280;9986;50.610;7.230;2024-03-07T21:52:40;143892.73;;;4.45;100.00
19674;BME280;9986;50.610;7.230;2024-03-07T22:13:44;143870.25;;;4.36;100.00
19674;BME280;9986;50.610;7.230;2024-03-07T22:21:35;143810.28;;;4.12;100.00
19674;BME280;9986;50.610;7.230;2024-03-07T22:26:48;143805.28;;;4.10;100.00
19674;BME280;9986;50.610;7.230;2024-03-07T22:32:01;143806.56;;;4.10;100.00
19674;BME280;9986;50.610;7.230;2024-03-07T22:37:14;143764.06;;;3.93;100.00
19674;BME280;9986;50.610;7.230;2024-03-07T22:45:09;143744.06;;;3.85;100.00
19674;BME280;9986;50.610;7.230;2024-03-07T22:50:27;143704.12;;;3.69;100.00
19674;BME280;9986;50.610;7.230;2024-03-07T22:55:39;143679.11;;;3.60;100.00
19674;BME280;9986;50.610;7.230;2024-03-07T23:27:16;143585.52;;;3.22;100.00
19674;BME280;9986;50.610;7.230;2024-03-07T23:40:29;143584.23;;;3.22;100.00
19674;BME280;9986;50.610;7.230;2024-03-07T23:48:21;143545.56;;;3.06;100.00
